sensor_id;sensor_type;location;lat;lon;timestamp;pressure;altitude;pressure_sealevel;temperature;humidity
21821;BME280;11073;48.586;12.066;2023-03-02T00:01:37;96460.69;;;4.03;58.28
21821;BME280;11073;48.586;12.066;2023-03-02T00:04:31;96461.31;;;4.05;58.30
21821;BME280;11073;48.586;12.066;2023-03-02T00:07:27;96461.72;;;4.02;58.21
21821;BME280;11073;48.586;12.066;2023-03-02T00:10:18;96456.53;;;3.94;58.34
21821;BME280;11073;48.586;12.066;2023-03-02T00:13:07;96458.53;;;3.85;58.42
21821;BME280;11073;48.586;12.066;2023-03-02T00:15:56;96457.88;;;3.83;58.54
21821;BME280;11073;48.586;12.066;2023-03-02T00:18:46;96453.56;;;3.82;58.52
21821;BME280;11073;48.586;12.066;2023-03-02T00:21:35;96461.53;;;3.76;58.67
21821;BME280;11073;48.586;12.066;2023-03-02T00:24:25;96461.38;;;3.77;58.78
21821;BME280;11073;48.586;12.066;2023-03-02T00:27:14;96457.66;;;3.78;58.76
21821;BME280;11073;48.586;12.066;2023-03-02T00:30:06;96459.75;;;3.83;58.88
21821;BME280;11073;48.586;12.066;2023-03-02T00:32:55;96462.88;;;3.86;58.90
21821;BME280;11073;48.586;12.066;2023-03-02T00:35:45;96466.59;;;3.85;58.92
21821;BME280;11073;48.586;12.066;2023-03-02T00:38:35;96459.38;;;3.86;59.02
21821;BME280;11073;48.586;12.066;2023-03-02T00:41:26;96460.56;;;3.83;59.03
21821;BME280;11073;48.586;12.066;2023-03-02T00:44:15;96457.72;;;3.85;59.08
21821;BME280;11073;48.586;12.066;2023-03-02T00:47:05;96458.34;;;3.87;59.16
21821;BME280;11073;48.586;12.066;2023-03-02T00:49:54;96459.22;;;3.94;59.06
21821;BME280;11073;48.586;12.066;2023-03-02T00:52:44;96457.56;;;3.93;59.16
21821;BME280;11073;48.586;12.066;2023-03-02T00:55:33;96459.31;;;3.79;59.17
21821;BME280;11073;48.586;12.066;2023-03-02T00:58:24;96457.88;;;3.77;59.32
21821;BME280;11073;48.586;12.066;2023-03-02T01:01:14;96456.19;;;3.76;59.40
21821;BME280;11073;48.586;12.066;2023-03-02T01:04:09;96454.16;;;3.78;59.39
21821;BME280;11073;48.586;12.066;2023-03-02T01:07:00;96447.47;;;3.67;59.36
21821;BME280;11073;48.586;12.066;2023-03-02T01:09:50;96434.09;;;3.67;59.65
21821;BME280;11073;48.586;12.066;2023-03-02T01:12:39;96448.50;;;3.66;59.70
21821;BME280;11073;48.586;12.066;2023-03-02T01:15:30;96436.97;;;3.66;59.64
21821;BME280;11073;48.586;12.066;2023-03-02T01:18:20;96439.94;;;3.77;59.65
21821;BME280;11073;48.586;12.066;2023-03-02T01:21:11;96428.63;;;3.82;59.63
21821;BME280;11073;48.586;12.066;2023-03-02T01:24:00;96425.78;;;3.90;59.58
21821;BME280;11073;48.586;12.066;2023-03-02T01:26:49;96432.63;;;3.93;59.49
21821;BME280;11073;48.586;12.066;2023-03-02T01:29:38;96425.41;;;3.93;59.44
21821;BME280;11073;48.586;12.066;2023-03-02T01:32:28;96407.66;;;3.85;59.55
21821;BME280;11073;48.586;12.066;2023-03-02T01:35:18;96431.59;;;3.94;59.57
21821;BME280;11073;48.586;12.066;2023-03-02T01:38:07;96421.25;;;3.91;59.45
21821;BME280;11073;48.586;12.066;2023-03-02T01:40:56;96422.13;;;3.91;59.65
21821;BME280;11073;48.586;12.066;2023-03-02T01:43:46;96415.91;;;3.91;59.46
21821;BME280;11073;48.586;12.066;2023-03-02T01:46:35;96416.94;;;3.90;59.36
21821;BME280;11073;48.586;12.066;2023-03-02T01:49:26;96410.53;;;3.84;59.49
21821;BME280;11073;48.586;12.066;2023-03-02T01:52:18;96409.94;;;3.88;59.40
21821;BME280;11073;48.586;12.066;2023-03-02T01:55:10;96410.13;;;3.87;59.53
21821;BME280;11073;48.586;12.066;2023-03-02T01:58:03;96396.66;;;3.74;59.57
21821;BME280;11073;48.586;12.066;2023-03-02T02:00:53;96403.25;;;3.71;59.63
21821;BME280;11073;48.586;12.066;2023-03-02T02:03:47;96395.00;;;3.73;59.72
21821;BME280;11073;48.586;12.066;2023-03-02T02:06:41;96400.16;;;3.74;59.81
21821;BME280;11073;48.586;12.066;2023-03-02T02:09:34;96394.44;;;3.77;59.70
21821;BME280;11073;48.586;12.066;2023-03-02T02:12:24;96396.91;;;3.79;59.86
21821;BME280;11073;48.586;12.066;2023-03-02T02:15:13;96391.75;;;3.77;59.92
21821;BME280;11073;48.586;12.066;2023-03-02T02:18:03;96389.66;;;3.73;59.95
21821;BME280;11073;48.586;12.066;2023-03-02T02:20:54;96383.28;;;3.74;59.82
21821;BME280;11073;48.586;12.066;2023-03-02T02:23:48;96385.69;;;3.69;59.83
21821;BME280;11073;48.586;12.066;2023-03-02T02:26:45;96387.28;;;3.56;60.04
21821;BME280;11073;48.586;12.066;2023-03-02T02:29:38;96391.41;;;3.59;60.12
21821;BME280;11073;48.586;12.066;2023-03-02T02:32:35;96384.56;;;3.50;60.26
21821;BME280;11073;48.586;12.066;2023-03-02T02:35:27;96390.34;;;3.53;60.22
21821;BME280;11073;48.586;12.066;2023-03-02T02:38:18;96384.22;;;3.59;60.22
21821;BME280;11073;48.586;12.066;2023-03-02T02:41:12;96378.69;;;3.68;60.30
21821;BME280;11073;48.586;12.066;2023-03-02T02:44:05;96367.78;;;3.69;60.20
21821;BME280;11073;48.586;12.066;2023-03-02T02:46:54;96377.28;;;3.72;60.35
21821;BME280;11073;48.586;12.066;2023-03-02T02:49:43;96373.13;;;3.69;60.25
21821;BME280;11073;48.586;12.066;2023-03-02T02:52:34;96367.38;;;3.66;60.39
21821;BME280;11073;48.586;12.066;2023-03-02T02:55:25;96372.31;;;3.69;60.49
21821;BME280;11073;48.586;12.066;2023-03-02T02:58:24;96371.72;;;3.73;60.45
21821;BME280;11073;48.586;12.066;2023-03-02T03:01:19;96379.09;;;3.65;60.38
21821;BME280;11073;48.586;12.066;2023-03-02T03:04:16;96375.34;;;3.59;60.43
21821;BME280;11073;48.586;12.066;2023-03-02T03:07:09;96370.00;;;3.59;60.52
21821;BME280;11073;48.586;12.066;2023-03-02T03:10:04;96380.28;;;3.55;60.76
21821;BME280;11073;48.586;12.066;2023-03-02T03:12:58;96374.31;;;3.60;60.68
21821;BME280;11073;48.586;12.066;2023-03-02T03:15:48;96383.84;;;3.63;60.84
21821;BME280;11073;48.586;12.066;2023-03-02T03:18:41;96374.78;;;3.64;60.86
21821;BME280;11073;48.586;12.066;2023-03-02T03:21:31;96373.53;;;3.66;60.84
21821;BME280;11073;48.586;12.066;2023-03-02T03:24:22;96376.97;;;3.53;60.85
21821;BME280;11073;48.586;12.066;2023-03-02T03:27:14;96370.16;;;3.51;61.05
21821;BME280;11073;48.586;12.066;2023-03-02T03:30:05;96372.69;;;3.59;61.05
21821;BME280;11073;48.586;12.066;2023-03-02T03:32:55;96370.00;;;3.59;60.98
21821;BME280;11073;48.586;12.066;2023-03-02T03:35:45;96373.69;;;3.58;61.02
21821;BME280;11073;48.586;12.066;2023-03-02T03:38:35;96361.09;;;3.52;61.19
21821;BME280;11073;48.586;12.066;2023-03-02T03:41:25;96377.88;;;3.39;61.31
21821;BME280;11073;48.586;12.066;2023-03-02T03:44:14;96353.75;;;3.32;61.48
21821;BME280;11073;48.586;12.066;2023-03-02T03:47:04;96371.34;;;3.42;61.53
21821;BME280;11073;48.586;12.066;2023-03-02T03:49:54;96369.63;;;3.34;61.60
21821;BME280;11073;48.586;12.066;2023-03-02T03:52:44;96370.97;;;3.23;61.87
21821;BME280;11073;48.586;12.066;2023-03-02T03:55:41;96365.44;;;3.25;62.13
21821;BME280;11073;48.586;12.066;2023-03-02T03:58:31;96369.53;;;3.21;62.10
21821;BME280;11073;48.586;12.066;2023-03-02T04:01:21;96377.63;;;3.27;62.19
21821;BME280;11073;48.586;12.066;2023-03-02T04:04:12;96371.66;;;3.32;62.12
21821;BME280;11073;48.586;12.066;2023-03-02T04:07:02;96360.78;;;3.34;62.30
21821;BME280;11073;48.586;12.066;2023-03-02T04:09:53;96360.38;;;3.37;62.33
21821;BME280;11073;48.586;12.066;2023-03-02T04:12:54;96366.75;;;3.36;62.36
21821;BME280;11073;48.586;12.066;2023-03-02T04:15:44;96354.81;;;3.38;62.31
21821;BME280;11073;48.586;12.066;2023-03-02T04:18:34;96353.19;;;3.37;62.43
21821;BME280;11073;48.586;12.066;2023-03-02T04:21:24;96356.69;;;3.38;62.56
21821;BME280;11073;48.586;12.066;2023-03-02T04:24:14;96343.66;;;3.28;62.39
21821;BME280;11073;48.586;12.066;2023-03-02T04:27:06;96352.66;;;3.20;62.76
21821;BME280;11073;48.586;12.066;2023-03-02T04:29:56;96354.72;;;3.25;62.75
21821;BME280;11073;48.586;12.066;2023-03-02T04:32:45;96354.34;;;3.28;62.81
21821;BME280;11073;48.586;12.066;2023-03-02T04:35:34;96347.34;;;3.27;62.82
21821;BME280;11073;48.586;12.066;2023-03-02T04:38:24;96331.00;;;3.15;62.90
21821;BME280;11073;48.586;12.066;2023-03-02T04:41:16;96358.22;;;3.25;63.02
21821;BME280;11073;48.586;12.066;2023-03-02T04:44:08;96347.16;;;3.28;62.97
21821;BME280;11073;48.586;12.066;2023-03-02T04:46:57;96353.13;;;3.30;63.00
21821;BME280;11073;48.586;12.066;2023-03-02T04:49:46;96350.69;;;3.36;63.04
21821;BME280;11073;48.586;12.066;2023-03-02T04:52:37;96354.00;;;3.38;62.88
21821;BME280;11073;48.586;12.066;2023-03-02T04:55:26;96349.28;;;3.40;62.82
21821;BME280;11073;48.586;12.066;2023-03-02T04:58:15;96355.22;;;3.35;62.84
21821;BME280;11073;48.586;12.066;2023-03-02T05:01:06;96353.94;;;3.31;62.98
21821;BME280;11073;48.586;12.066;2023-03-02T05:03:55;96362.19;;;3.29;62.80
21821;BME280;11073;48.586;12.066;2023-03-02T05:06:44;96360.13;;;3.31;62.82
21821;BME280;11073;48.586;12.066;2023-03-02T05:09:33;96356.00;;;3.29;62.93
21821;BME280;11073;48.586;12.066;2023-03-02T05:12:23;96349.53;;;3.17;62.96
21821;BME280;11073;48.586;12.066;2023-03-02T05:15:12;96352.66;;;3.20;63.08
21821;BME280;11073;48.586;12.066;2023-03-02T05:18:04;96345.88;;;3.24;62.93
21821;BME280;11073;48.586;12.066;2023-03-02T05:20:54;96342.19;;;3.25;63.17
21821;BME280;11073;48.586;12.066;2023-03-02T05:23:44;96343.59;;;3.21;63.03
21821;BME280;11073;48.586;12.066;2023-03-02T05:26:33;96345.88;;;3.24;63.17
21821;BME280;11073;48.586;12.066;2023-03-02T05:29:22;96351.69;;;3.28;63.14
21821;BME280;11073;48.586;12.066;2023-03-02T05:32:11;96350.66;;;3.29;63.09
21821;BME280;11073;48.586;12.066;2023-03-02T05:35:01;96349.16;;;3.20;63.07
21821;BME280;11073;48.586;12.066;2023-03-02T05:37:50;96356.72;;;3.16;63.17
21821;BME280;11073;48.586;12.066;2023-03-02T05:40:39;96349.78;;;3.22;63.14
21821;BME280;11073;48.586;12.066;2023-03-02T05:43:29;96354.69;;;3.18;63.12
21821;BME280;11073;48.586;12.066;2023-03-02T05:46:17;96333.63;;;3.09;63.19
21821;BME280;11073;48.586;12.066;2023-03-02T05:49:08;96355.84;;;3.09;63.22
21821;BME280;11073;48.586;12.066;2023-03-02T05:51:59;96346.63;;;3.12;63.41
21821;BME280;11073;48.586;12.066;2023-03-02T05:54:48;96348.13;;;3.21;63.32
21821;BME280;11073;48.586;12.066;2023-03-02T05:57:37;96350.59;;;3.22;63.31
21821;BME280;11073;48.586;12.066;2023-03-02T06:00:26;96349.22;;;3.26;63.23
21821;BME280;11073;48.586;12.066;2023-03-02T06:03:16;96342.38;;;3.24;63.23
21821;BME280;11073;48.586;12.066;2023-03-02T06:06:05;96343.94;;;3.12;63.34
21821;BME280;11073;48.586;12.066;2023-03-02T06:08:55;96351.38;;;3.16;63.45
21821;BME280;11073;48.586;12.066;2023-03-02T06:11:44;96327.84;;;3.05;63.39
21821;BME280;11073;48.586;12.066;2023-03-02T06:14:34;96351.00;;;3.19;63.65
21821;BME280;11073;48.586;12.066;2023-03-02T06:17:23;96353.03;;;3.17;63.59
21821;BME280;11073;48.586;12.066;2023-03-02T06:20:13;96352.59;;;3.14;63.52
21821;BME280;11073;48.586;12.066;2023-03-02T06:23:02;96356.97;;;3.21;63.71
21821;BME280;11073;48.586;12.066;2023-03-02T06:25:52;96353.47;;;3.21;63.62
21821;BME280;11073;48.586;12.066;2023-03-02T06:28:41;96351.44;;;3.23;63.62
21821;BME280;11073;48.586;12.066;2023-03-02T06:31:40;96360.78;;;3.34;63.64
21821;BME280;11073;48.586;12.066;2023-03-02T06:34:30;96358.09;;;3.34;63.60
21821;BME280;11073;48.586;12.066;2023-03-02T06:37:22;96358.09;;;3.34;63.56
21821;BME280;11073;48.586;12.066;2023-03-02T06:40:11;96345.72;;;3.32;63.49
21821;BME280;11073;48.586;12.066;2023-03-02T06:43:02;96351.94;;;3.40;63.49
21821;BME280;11073;48.586;12.066;2023-03-02T06:45:52;96338.16;;;3.36;63.71
21821;BME280;11073;48.586;12.066;2023-03-02T06:48:41;96351.81;;;3.48;63.42
21821;BME280;11073;48.586;12.066;2023-03-02T06:51:30;96355.31;;;3.48;63.54
21821;BME280;11073;48.586;12.066;2023-03-02T06:54:19;96361.09;;;3.52;63.69
21821;BME280;11073;48.586;12.066;2023-03-02T06:57:10;96367.47;;;3.51;63.76
21821;BME280;11073;48.586;12.066;2023-03-02T07:00:04;96360.75;;;3.62;63.73
21821;BME280;11073;48.586;12.066;2023-03-02T07:02:57;96367.59;;;3.71;63.70
21821;BME280;11073;48.586;12.066;2023-03-02T07:05:46;96359.16;;;3.74;63.71
21821;BME280;11073;48.586;12.066;2023-03-02T07:08:39;96363.75;;;3.80;63.64
21821;BME280;11073;48.586;12.066;2023-03-02T07:11:28;96354.25;;;3.77;63.64
21821;BME280;11073;48.586;12.066;2023-03-02T07:14:17;96367.47;;;3.85;63.64
21821;BME280;11073;48.586;12.066;2023-03-02T07:17:08;96364.41;;;3.88;63.65
21821;BME280;11073;48.586;12.066;2023-03-02T07:19:57;96360.34;;;3.99;63.72
21821;BME280;11073;48.586;12.066;2023-03-02T07:22:45;96366.72;;;4.05;63.52
21821;BME280;11073;48.586;12.066;2023-03-02T07:25:34;96369.47;;;4.18;63.58
21821;BME280;11073;48.586;12.066;2023-03-02T07:28:23;96374.25;;;4.23;63.55
21821;BME280;11073;48.586;12.066;2023-03-02T07:31:13;96373.25;;;4.30;63.44
21821;BME280;11073;48.586;12.066;2023-03-02T07:34:03;96375.94;;;4.37;63.37
21821;BME280;11073;48.586;12.066;2023-03-02T07:36:52;96369.81;;;4.50;63.42
21821;BME280;11073;48.586;12.066;2023-03-02T07:39:41;96374.56;;;4.61;63.29
21821;BME280;11073;48.586;12.066;2023-03-02T07:42:31;96362.22;;;4.73;62.93
21821;BME280;11073;48.586;12.066;2023-03-02T07:45:21;96366.16;;;4.84;62.86
21821;BME280;11073;48.586;12.066;2023-03-02T07:48:11;96365.75;;;4.93;62.77
21821;BME280;11073;48.586;12.066;2023-03-02T07:51:04;96380.19;;;5.06;62.72
21821;BME280;11073;48.586;12.066;2023-03-02T07:53:53;96372.59;;;5.16;62.50
21821;BME280;11073;48.586;12.066;2023-03-02T07:56:42;96370.50;;;5.18;62.33
21821;BME280;11073;48.586;12.066;2023-03-02T07:59:31;96372.38;;;5.31;62.19
21821;BME280;11073;48.586;12.066;2023-03-02T08:02:20;96380.81;;;5.41;61.90
21821;BME280;11073;48.586;12.066;2023-03-02T08:05:09;96380.44;;;5.50;61.76
21821;BME280;11073;48.586;12.066;2023-03-02T08:08:00;96378.72;;;5.69;61.69
21821;BME280;11073;48.586;12.066;2023-03-02T08:10:49;96380.56;;;5.82;61.29
21821;BME280;11073;48.586;12.066;2023-03-02T08:13:38;96383.88;;;5.84;60.92
21821;BME280;11073;48.586;12.066;2023-03-02T08:16:28;96378.28;;;5.92;60.76
21821;BME280;11073;48.586;12.066;2023-03-02T08:19:17;96387.81;;;6.01;60.60
21821;BME280;11073;48.586;12.066;2023-03-02T08:22:06;96382.81;;;6.12;60.30
21821;BME280;11073;48.586;12.066;2023-03-02T08:24:56;96388.97;;;6.19;60.25
21821;BME280;11073;48.586;12.066;2023-03-02T08:27:45;96385.00;;;6.34;60.14
21821;BME280;11073;48.586;12.066;2023-03-02T08:30:34;96393.38;;;6.51;59.91
21821;BME280;11073;48.586;12.066;2023-03-02T08:33:23;96380.56;;;6.53;59.70
21821;BME280;11073;48.586;12.066;2023-03-02T08:36:14;96391.84;;;6.75;59.48
21821;BME280;11073;48.586;12.066;2023-03-02T08:39:04;96374.66;;;6.76;58.89
21821;BME280;11073;48.586;12.066;2023-03-02T08:41:54;96387.22;;;6.89;58.97
21821;BME280;11073;48.586;12.066;2023-03-02T08:44:44;96380.44;;;7.11;58.83
21821;BME280;11073;48.586;12.066;2023-03-02T08:47:33;96373.00;;;7.07;58.27
21821;BME280;11073;48.586;12.066;2023-03-02T08:50:21;96389.28;;;7.18;58.02
21821;BME280;11073;48.586;12.066;2023-03-02T08:53:10;96376.38;;;7.27;57.95
21821;BME280;11073;48.586;12.066;2023-03-02T08:56:00;96387.19;;;7.45;57.86
21821;BME280;11073;48.586;12.066;2023-03-02T08:58:51;96391.16;;;7.68;57.76
21821;BME280;11073;48.586;12.066;2023-03-02T09:01:41;96392.00;;;7.87;57.22
21821;BME280;11073;48.586;12.066;2023-03-02T09:04:30;96388.34;;;7.99;56.86
21821;BME280;11073;48.586;12.066;2023-03-02T09:07:19;96391.50;;;8.15;56.56
21821;BME280;11073;48.586;12.066;2023-03-02T09:10:09;96384.53;;;8.25;56.08
21821;BME280;11073;48.586;12.066;2023-03-02T09:12:59;96392.44;;;8.45;56.27
21821;BME280;11073;48.586;12.066;2023-03-02T09:15:49;96386.28;;;8.56;55.71
21821;BME280;11073;48.586;12.066;2023-03-02T09:18:38;96394.13;;;8.76;55.42
21821;BME280;11073;48.586;12.066;2023-03-02T09:21:27;96390.38;;;8.77;55.30
21821;BME280;11073;48.586;12.066;2023-03-02T09:24:16;96392.78;;;8.97;54.90
21821;BME280;11073;48.586;12.066;2023-03-02T09:27:06;96386.22;;;9.05;54.69
21821;BME280;11073;48.586;12.066;2023-03-02T09:29:55;96390.16;;;9.21;54.48
21821;BME280;11073;48.586;12.066;2023-03-02T09:32:45;96375.41;;;9.47;54.33
21821;BME280;11073;48.586;12.066;2023-03-02T09:35:37;96363.31;;;9.49;54.01
21821;BME280;11073;48.586;12.066;2023-03-02T09:38:26;96390.59;;;9.83;53.59
21821;BME280;11073;48.586;12.066;2023-03-02T09:41:42;96388.25;;;10.10;53.40
21821;BME280;11073;48.586;12.066;2023-03-02T09:44:59;96380.47;;;10.37;52.87
21821;BME280;11073;48.586;12.066;2023-03-02T09:48:00;96376.06;;;10.59;52.74
21821;BME280;11073;48.586;12.066;2023-03-02T09:50:59;96394.50;;;10.74;51.93
21821;BME280;11073;48.586;12.066;2023-03-02T09:53:59;96387.44;;;10.73;51.47
21821;BME280;11073;48.586;12.066;2023-03-02T09:56:52;96383.81;;;10.67;51.12
21821;BME280;11073;48.586;12.066;2023-03-02T09:59:44;96384.94;;;10.83;50.98
21821;BME280;11073;48.586;12.066;2023-03-02T10:02:39;96385.88;;;11.05;51.08
21821;BME280;11073;48.586;12.066;2023-03-02T10:05:37;96377.72;;;11.17;50.30
21821;BME280;11073;48.586;12.066;2023-03-02T10:08:28;96392.34;;;11.16;50.07
21821;BME280;11073;48.586;12.066;2023-03-02T10:11:24;96383.50;;;11.38;49.78
21821;BME280;11073;48.586;12.066;2023-03-02T10:14:19;96383.81;;;11.41;49.36
21821;BME280;11073;48.586;12.066;2023-03-02T10:17:29;96379.78;;;11.44;49.39
21821;BME280;11073;48.586;12.066;2023-03-02T10:20:27;96380.06;;;11.76;48.81
21821;BME280;11073;48.586;12.066;2023-03-02T10:23:38;96388.09;;;11.71;48.60
21821;BME280;11073;48.586;12.066;2023-03-02T10:26:37;96390.09;;;11.92;48.24
21821;BME280;11073;48.586;12.066;2023-03-02T10:29:43;96378.56;;;12.19;48.43
21821;BME280;11073;48.586;12.066;2023-03-02T10:32:37;96379.41;;;12.41;47.96
21821;BME280;11073;48.586;12.066;2023-03-02T10:35:29;96385.31;;;12.60;47.75
21821;BME280;11073;48.586;12.066;2023-03-02T10:38:21;96381.50;;;12.78;47.38
21821;BME280;11073;48.586;12.066;2023-03-02T10:41:15;96381.22;;;12.79;46.65
21821;BME280;11073;48.586;12.066;2023-03-02T10:44:12;96379.50;;;12.95;46.17
21821;BME280;11073;48.586;12.066;2023-03-02T10:47:04;96382.44;;;13.15;46.25
21821;BME280;11073;48.586;12.066;2023-03-02T10:49:54;96374.19;;;13.32;45.84
21821;BME280;11073;48.586;12.066;2023-03-02T10:52:47;96365.84;;;13.39;45.18
21821;BME280;11073;48.586;12.066;2023-03-02T10:55:49;96377.19;;;13.31;45.52
21821;BME280;11073;48.586;12.066;2023-03-02T10:58:39;96374.66;;;13.51;44.98
21821;BME280;11073;48.586;12.066;2023-03-02T11:01:30;96373.88;;;13.88;45.10
21821;BME280;11073;48.586;12.066;2023-03-02T11:04:18;96372.28;;;13.97;44.35
21821;BME280;11073;48.586;12.066;2023-03-02T11:07:08;96373.50;;;13.74;43.86
21821;BME280;11073;48.586;12.066;2023-03-02T11:10:00;96363.03;;;13.56;43.72
21821;BME280;11073;48.586;12.066;2023-03-02T11:12:51;96366.91;;;13.65;43.71
21821;BME280;11073;48.586;12.066;2023-03-02T11:15:44;96359.34;;;13.72;43.63
21821;BME280;11073;48.586;12.066;2023-03-02T11:18:37;96358.91;;;14.27;43.80
21821;BME280;11073;48.586;12.066;2023-03-02T11:21:32;96347.94;;;14.65;43.21
21821;BME280;11073;48.586;12.066;2023-03-02T11:24:28;96349.41;;;14.93;42.97
21821;BME280;11073;48.586;12.066;2023-03-02T11:27:21;96352.44;;;15.11;42.41
21821;BME280;11073;48.586;12.066;2023-03-02T11:30:16;96351.91;;;15.25;42.34
21821;BME280;11073;48.586;12.066;2023-03-02T11:33:13;96347.31;;;15.45;41.77
21821;BME280;11073;48.586;12.066;2023-03-02T11:36:08;96342.94;;;15.29;41.05
21821;BME280;11073;48.586;12.066;2023-03-02T11:38:59;96351.34;;;15.17;40.87
21821;BME280;11073;48.586;12.066;2023-03-02T11:41:52;96334.44;;;15.00;40.75
21821;BME280;11073;48.586;12.066;2023-03-02T11:44:42;96343.69;;;14.99;40.68
21821;BME280;11073;48.586;12.066;2023-03-02T11:47:31;96349.44;;;15.08;40.64
21821;BME280;11073;48.586;12.066;2023-03-02T11:50:22;96347.03;;;15.47;40.83
21821;BME280;11073;48.586;12.066;2023-03-02T11:53:15;96336.09;;;15.42;40.65
21821;BME280;11073;48.586;12.066;2023-03-02T11:56:07;96348.72;;;15.74;39.86
21821;BME280;11073;48.586;12.066;2023-03-02T11:58:59;96336.13;;;16.03;40.05
21821;BME280;11073;48.586;12.066;2023-03-02T12:01:52;96337.97;;;16.33;39.58
21821;BME280;11073;48.586;12.066;2023-03-02T12:04:43;96342.28;;;16.54;38.93
21821;BME280;11073;48.586;12.066;2023-03-02T12:07:33;96337.34;;;16.62;38.81
21821;BME280;11073;48.586;12.066;2023-03-02T12:10:24;96332.16;;;16.55;38.53
21821;BME280;11073;48.586;12.066;2023-03-02T12:13:17;96323.38;;;16.68;38.58
21821;BME280;11073;48.586;12.066;2023-03-02T12:16:18;96328.50;;;16.90;38.63
21821;BME280;11073;48.586;12.066;2023-03-02T12:19:12;96332.06;;;17.35;38.38
21821;BME280;11073;48.586;12.066;2023-03-02T12:22:04;96321.94;;;17.30;37.70
21821;BME280;11073;48.586;12.066;2023-03-02T12:25:02;96319.34;;;17.54;37.94
21821;BME280;11073;48.586;12.066;2023-03-02T12:27:53;96318.44;;;17.98;37.68
21821;BME280;11073;48.586;12.066;2023-03-02T12:30:43;96319.25;;;17.99;37.25
21821;BME280;11073;48.586;12.066;2023-03-02T12:33:46;96328.09;;;18.19;37.19
21821;BME280;11073;48.586;12.066;2023-03-02T12:36:41;96321.22;;;17.93;36.27
21821;BME280;11073;48.586;12.066;2023-03-02T12:39:43;96321.22;;;17.93;35.89
21821;BME280;11073;48.586;12.066;2023-03-02T12:42:46;96307.41;;;18.03;35.95
21821;BME280;11073;48.586;12.066;2023-03-02T12:45:46;96309.25;;;18.13;35.84
21821;BME280;11073;48.586;12.066;2023-03-02T12:48:42;96313.47;;;18.00;35.74
21821;BME280;11073;48.586;12.066;2023-03-02T12:51:46;96308.63;;;17.92;35.33
21821;BME280;11073;48.586;12.066;2023-03-02T12:54:36;96308.44;;;18.12;35.93
21821;BME280;11073;48.586;12.066;2023-03-02T12:57:25;96311.13;;;18.65;35.54
21821;BME280;11073;48.586;12.066;2023-03-02T13:00:18;96302.16;;;18.84;35.19
21821;BME280;11073;48.586;12.066;2023-03-02T13:03:13;96301.28;;;18.40;34.77
21821;BME280;11073;48.586;12.066;2023-03-02T13:06:03;96298.66;;;18.78;35.05
21821;BME280;11073;48.586;12.066;2023-03-02T13:08:58;96304.56;;;18.66;34.44
21821;BME280;11073;48.586;12.066;2023-03-02T13:11:48;96292.41;;;18.25;34.23
21821;BME280;11073;48.586;12.066;2023-03-02T13:14:44;96294.59;;;17.99;34.22
21821;BME280;11073;48.586;12.066;2023-03-02T13:17:36;96291.34;;;18.21;34.73
21821;BME280;11073;48.586;12.066;2023-03-02T13:20:27;96294.69;;;18.41;34.29
21821;BME280;11073;48.586;12.066;2023-03-02T13:23:17;96295.47;;;18.71;34.11
21821;BME280;11073;48.586;12.066;2023-03-02T13:26:07;96293.28;;;18.68;33.87
21821;BME280;11073;48.586;12.066;2023-03-02T13:29:00;96295.81;;;18.40;33.58
21821;BME280;11073;48.586;12.066;2023-03-02T13:31:49;96283.66;;;18.23;33.73
21821;BME280;11073;48.586;12.066;2023-03-02T13:34:44;96294.56;;;18.52;34.09
21821;BME280;11073;48.586;12.066;2023-03-02T13:37:37;96295.03;;;18.35;33.53
21821;BME280;11073;48.586;12.066;2023-03-02T13:40:36;96294.41;;;17.90;33.69
21821;BME280;11073;48.586;12.066;2023-03-02T13:43:43;96285.56;;;17.64;33.80
21821;BME280;11073;48.586;12.066;2023-03-02T13:46:33;96278.69;;;18.01;34.09
21821;BME280;11073;48.586;12.066;2023-03-02T13:49:27;96281.97;;;18.51;34.01
21821;BME280;11073;48.586;12.066;2023-03-02T13:52:22;96279.75;;;18.77;33.61
21821;BME280;11073;48.586;12.066;2023-03-02T13:55:14;96265.25;;;18.76;33.59
21821;BME280;11073;48.586;12.066;2023-03-02T13:58:03;96286.28;;;19.18;33.59
21821;BME280;11073;48.586;12.066;2023-03-02T14:00:53;96280.13;;;19.45;33.57
21821;BME280;11073;48.586;12.066;2023-03-02T14:03:41;96279.34;;;19.07;33.08
21821;BME280;11073;48.586;12.066;2023-03-02T14:06:30;96277.25;;;19.37;33.24
21821;BME280;11073;48.586;12.066;2023-03-02T14:09:21;96272.88;;;19.36;32.73
21821;BME280;11073;48.586;12.066;2023-03-02T14:12:21;96271.69;;;19.42;32.38
21821;BME280;11073;48.586;12.066;2023-03-02T14:15:13;96280.00;;;18.99;32.59
21821;BME280;11073;48.586;12.066;2023-03-02T14:18:09;96282.66;;;18.85;32.80
21821;BME280;11073;48.586;12.066;2023-03-02T14:21:04;96268.88;;;19.09;32.59
21821;BME280;11073;48.586;12.066;2023-03-02T14:23:53;96272.94;;;18.93;32.39
21821;BME280;11073;48.586;12.066;2023-03-02T14:26:47;96276.13;;;18.81;32.30
21821;BME280;11073;48.586;12.066;2023-03-02T14:29:37;96270.06;;;18.60;32.59
21821;BME280;11073;48.586;12.066;2023-03-02T14:32:26;96271.97;;;19.02;32.89
21821;BME280;11073;48.586;12.066;2023-03-02T14:35:16;96264.31;;;19.37;32.22
21821;BME280;11073;48.586;12.066;2023-03-02T14:38:05;96266.84;;;19.34;31.91
21821;BME280;11073;48.586;12.066;2023-03-02T14:40:55;96269.84;;;18.99;32.23
21821;BME280;11073;48.586;12.066;2023-03-02T14:43:45;96260.72;;;18.61;31.99
21821;BME280;11073;48.586;12.066;2023-03-02T14:46:34;96253.69;;;18.55;32.39
21821;BME280;11073;48.586;12.066;2023-03-02T14:49:23;96253.56;;;18.17;32.31
21821;BME280;11073;48.586;12.066;2023-03-02T14:52:16;96263.53;;;18.32;32.59
21821;BME280;11073;48.586;12.066;2023-03-02T14:55:14;96250.00;;;18.17;32.56
21821;BME280;11073;48.586;12.066;2023-03-02T14:58:10;96250.31;;;18.39;32.99
21821;BME280;11073;48.586;12.066;2023-03-02T15:01:03;96252.47;;;18.66;32.78
21821;BME280;11073;48.586;12.066;2023-03-02T15:03:52;96255.97;;;19.10;33.13
21821;BME280;11073;48.586;12.066;2023-03-02T15:06:42;96246.53;;;18.97;32.21